createdAt,value
2018-01-01T00:00:05.254Z,99088.33
2018-01-01T00:02:33.363Z,99081.36
2018-01-01T00:05:01.708Z,99099.08
2018-01-01T00:07:30.038Z,99099.28
2018-01-01T00:09:58.386Z,99095.09
2018-01-01T00:12:26.854Z,99106.98
2018-01-01T00:14:55.186Z,99104.11
2018-01-01T00:17:23.518Z,99091.83
2018-01-01T00:19:51.880Z,99095.47
2018-01-01T00:22:20.212Z,99104.70
2018-01-01T00:24:48.674Z,99112.06
2018-01-01T00:27:17.015Z,99108.98
2018-01-01T00:29:45.384Z,99106.88
2018-01-01T00:32:13.717Z,99100.73
2018-01-01T00:34:42.096Z,99116.37
2018-01-01T00:37:10.426Z,99123.09
2018-01-01T00:39:38.794Z,99119.44
2018-01-01T00:42:07.110Z,99122.44
2018-01-01T00:44:35.463Z,99110.03
2018-01-01T00:47:03.786Z,99085.91
2018-01-01T00:49:32.140Z,99090.75
2018-01-01T00:52:00.514Z,99100.28
2018-01-01T00:54:28.861Z,99088.94
2018-01-01T00:56:57.190Z,99076.33
2018-01-01T00:59:25.534Z,99054.15
2018-01-01T01:01:53.858Z,99070.13
2018-01-01T01:04:22.202Z,99091.00
2018-01-01T01:06:50.526Z,99101.13
2018-01-01T01:09:18.869Z,99102.64
2018-01-01T01:11:47.202Z,99102.31
2018-01-01T01:14:15.544Z,99107.90
2018-01-01T01:16:43.870Z,99106.19
2018-01-01T01:19:12.209Z,99104.17
2018-01-01T01:21:40.550Z,99121.52
2018-01-01T01:24:08.894Z,99128.06
2018-01-01T01:26:37.227Z,99131.25
2018-01-01T01:29:05.578Z,99155.19
2018-01-01T01:31:33.894Z,99150.50
2018-01-01T01:34:02.229Z,99150.18
2018-01-01T01:36:30.542Z,99134.90
2018-01-01T01:38:58.886Z,99139.32
2018-01-01T01:41:27.207Z,99150.39
2018-01-01T01:43:55.562Z,99156.36
2018-01-01T01:46:23.886Z,99160.02
2018-01-01T01:48:52.214Z,99162.55
2018-01-01T01:51:20.568Z,99164.08
2018-01-01T01:53:48.885Z,99159.21
2018-01-01T01:56:17.226Z,99163.52
2018-01-01T01:58:45.539Z,99149.74
2018-01-01T02:01:13.878Z,99137.07
2018-01-01T02:03:42.211Z,99147.42
2018-01-01T02:06:10.547Z,99147.13
2018-01-01T02:08:38.885Z,99158.84
2018-01-01T02:11:07.241Z,99154.27
2018-01-01T02:13:35.566Z,99155.55
2018-01-01T02:16:03.922Z,99142.22
2018-01-01T02:18:32.257Z,99139.23
2018-01-01T02:21:00.601Z,99144.06
2018-01-01T02:23:28.926Z,99138.27
2018-01-01T02:25:57.271Z,99132.24
2018-01-01T02:28:25.590Z,99133.56
2018-01-01T02:30:53.935Z,99130.66
2018-01-01T02:33:22.253Z,99132.77
2018-01-01T02:35:50.604Z,99120.50
2018-01-01T02:38:18.922Z,99148.25
2018-01-01T02:40:47.294Z,99152.68
2018-01-01T02:43:15.652Z,99145.61
2018-01-01T02:45:43.967Z,99152.84
2018-01-01T02:50:46.269Z,99156.69
2018-01-01T02:53:14.596Z,99149.38
2018-01-01T02:55:42.938Z,99146.73
2018-01-01T02:58:11.258Z,99133.11
2018-01-01T03:00:39.611Z,99151.99
2018-01-01T03:03:07.932Z,99140.70
2018-01-01T03:05:36.266Z,99152.48
2018-01-01T03:08:04.598Z,99153.47
2018-01-01T03:10:32.937Z,99156.30
2018-01-01T03:13:01.257Z,99170.47
2018-01-01T03:15:29.601Z,99149.73
2018-01-01T03:17:57.926Z,99150.78
2018-01-01T03:20:26.267Z,99153.93
2018-01-01T03:22:54.597Z,99152.73
2018-01-01T03:25:22.962Z,99144.73
2018-01-01T03:27:51.276Z,99142.99
2018-01-01T03:30:19.609Z,99140.92
2018-01-01T03:32:47.951Z,99153.77
2018-01-01T03:35:16.296Z,99158.86
2018-01-01T03:37:45.349Z,99159.06
2018-01-01T03:40:13.686Z,99168.89
2018-01-01T03:42:41.998Z,99166.67
2018-01-01T03:45:10.346Z,99170.33
2018-01-01T03:47:38.670Z,99160.88
2018-01-01T03:50:07.014Z,99146.72
2018-01-01T03:52:35.353Z,99134.77
2018-01-01T03:55:03.678Z,99150.84
2018-01-01T03:57:32.002Z,99166.60
2018-01-01T04:00:00.315Z,99156.91
2018-01-01T04:02:28.653Z,99165.75
2018-01-01T04:04:56.961Z,99168.02
2018-01-01T04:07:25.314Z,99161.88
2018-01-01T04:09:54.415Z,99164.73
2018-01-01T04:12:22.770Z,99155.15
2018-01-01T04:14:51.089Z,99159.66
2018-01-01T04:17:19.421Z,99171.98
2018-01-01T04:19:47.739Z,99153.05
2018-01-01T04:22:16.093Z,99172.41
2018-01-01T04:24:44.398Z,99161.36
2018-01-01T04:27:12.733Z,99143.12
2018-01-01T04:29:41.055Z,99156.89
2018-01-01T04:32:09.411Z,99145.02
2018-01-01T04:34:37.723Z,99136.91
2018-01-01T04:37:06.063Z,99122.41
2018-01-01T04:39:34.383Z,99149.19
2018-01-01T04:42:02.715Z,99134.86
2018-01-01T04:44:31.028Z,99137.71
2018-01-01T04:46:59.349Z,99147.16
2018-01-01T04:49:27.661Z,99142.53
2018-01-01T04:51:55.995Z,99145.96
2018-01-01T04:54:24.301Z,99153.10
2018-01-01T04:56:52.651Z,99161.98
2018-01-01T04:59:20.961Z,99158.69
2018-01-01T05:01:50.134Z,99168.33
2018-01-01T05:04:18.441Z,99165.87
2018-01-01T05:06:46.918Z,99172.88
2018-01-01T05:09:15.225Z,99168.27
2018-01-01T05:11:43.580Z,99177.94
2018-01-01T05:14:12.085Z,99178.22
2018-01-01T05:16:40.414Z,99182.32
2018-01-01T05:19:08.727Z,99184.65
2018-01-01T05:21:37.058Z,99189.80
2018-01-01T05:24:05.362Z,99192.82
2018-01-01T05:26:33.687Z,99193.40
2018-01-01T05:29:02.005Z,99210.23
2018-01-01T05:31:30.324Z,99206.02
2018-01-01T05:33:58.633Z,99199.06
2018-01-01T05:36:26.970Z,99203.84
2018-01-01T05:38:55.278Z,99218.50
2018-01-01T05:41:23.609Z,99214.14
2018-01-01T05:43:51.934Z,99211.70
2018-01-01T05:46:20.275Z,99222.63
2018-01-01T05:48:48.588Z,99237.45
2018-01-01T05:51:16.936Z,99237.07
2018-01-01T05:53:45.242Z,99244.14
2018-01-01T05:56:13.550Z,99236.60
2018-01-01T05:58:41.880Z,99225.38
2018-01-01T06:01:10.185Z,99243.70
2018-01-01T06:03:38.518Z,99256.92
2018-01-01T06:06:06.826Z,99256.28
2018-01-01T06:08:35.149Z,99264.04
2018-01-01T06:11:03.481Z,99272.25
2018-01-01T06:13:31.814Z,99279.41
2018-01-01T06:16:00.122Z,99283.66
2018-01-01T06:18:28.450Z,99289.55
2018-01-01T06:20:56.758Z,99303.52
2018-01-01T06:23:25.093Z,99301.80
2018-01-01T06:25:54.297Z,99297.09
2018-01-01T06:28:22.629Z,99309.59
2018-01-01T06:30:50.963Z,99295.48
2018-01-01T06:33:19.284Z,99302.45
2018-01-01T06:35:47.594Z,99303.59
2018-01-01T06:38:15.926Z,99318.02
2018-01-01T06:40:44.242Z,99323.48
2018-01-01T06:43:12.566Z,99332.45
2018-01-01T06:45:40.874Z,99336.75
2018-01-01T06:48:09.206Z,99346.98
2018-01-01T06:50:37.522Z,99337.01
2018-01-01T06:53:05.854Z,99347.59
2018-01-01T06:55:34.189Z,99355.73
2018-01-01T06:58:02.518Z,99370.77
2018-01-01T07:00:30.831Z,99363.78
2018-01-01T07:02:59.157Z,99374.98
2018-01-01T07:05:27.485Z,99368.61
2018-01-01T07:07:55.814Z,99384.66
2018-01-01T07:10:24.125Z,99383.31
2018-01-01T07:12:52.446Z,99395.52
2018-01-01T07:15:20.749Z,99397.77
2018-01-01T07:17:49.083Z,99402.03
2018-01-01T07:20:17.385Z,99399.55
2018-01-01T07:22:45.722Z,99399.69
2018-01-01T07:25:14.034Z,99407.21
2018-01-01T07:27:42.366Z,99411.50
2018-01-01T07:30:10.680Z,99415.59
2018-01-01T07:32:39.008Z,99418.66
2018-01-01T07:35:07.322Z,99416.45
2018-01-01T07:37:35.657Z,99431.09
2018-01-01T07:40:03.954Z,99434.73
2018-01-01T07:42:32.286Z,99434.00
2018-01-01T07:45:00.590Z,99430.69
2018-01-01T07:47:28.918Z,99438.56
2018-01-01T07:49:57.229Z,99444.09
2018-01-01T07:52:25.563Z,99455.91
2018-01-01T07:54:53.866Z,99460.73
2018-01-01T07:57:22.176Z,99473.08
2018-01-01T07:59:50.537Z,99475.72
2018-01-01T08:02:18.900Z,99483.22
2018-01-01T08:04:47.221Z,99488.80
2018-01-01T08:07:15.538Z,99524.14
2018-01-01T08:09:43.860Z,99529.99
2018-01-01T08:12:12.165Z,99535.56
2018-01-01T08:14:40.501Z,99540.02
2018-01-01T08:17:08.810Z,99539.22
2018-01-01T08:19:37.141Z,99543.89
2018-01-01T08:22:05.458Z,99568.00
2018-01-01T08:24:33.786Z,99578.23
2018-01-01T08:27:02.098Z,99570.48
2018-01-01T08:29:30.421Z,99548.88
2018-01-01T08:31:58.730Z,99559.83
2018-01-01T08:34:27.058Z,99556.42
2018-01-01T08:36:55.361Z,99561.13
2018-01-01T08:39:23.718Z,99567.05
2018-01-01T08:41:52.013Z,99574.89
2018-01-01T08:44:20.345Z,99586.33
2018-01-01T08:46:48.654Z,99578.11
2018-01-01T08:49:16.983Z,99585.26
2018-01-01T08:51:45.285Z,99585.45
2018-01-01T08:54:13.614Z,99595.36
2018-01-01T08:56:41.922Z,99607.66
2018-01-01T08:59:10.250Z,99605.84
2018-01-01T09:01:38.567Z,99600.80
2018-01-01T09:04:07.102Z,99612.87
2018-01-01T09:06:35.418Z,99608.78
2018-01-01T09:09:03.750Z,99611.36
2018-01-01T09:11:32.334Z,99607.89
2018-01-01T09:14:00.738Z,99602.08
2018-01-01T09:16:29.041Z,99606.05
2018-01-01T09:18:57.374Z,99609.48
2018-01-01T09:21:25.681Z,99609.14
2018-01-01T09:23:54.022Z,99612.64
2018-01-01T09:26:22.347Z,99611.19
2018-01-01T09:28:50.683Z,99603.45
2018-01-01T09:31:18.995Z,99611.54
2018-01-01T09:33:47.334Z,99613.63
2018-01-01T09:36:15.645Z,99613.77
2018-01-01T09:38:43.974Z,99621.41
2018-01-01T09:41:12.284Z,99618.75
2018-01-01T09:43:40.614Z,99611.23
2018-01-01T09:46:09.227Z,99616.20
2018-01-01T09:48:37.541Z,99626.16
2018-01-01T09:51:05.889Z,99621.11
2018-01-01T09:53:34.278Z,99619.99
2018-01-01T09:56:02.590Z,99617.69
2018-01-01T09:58:30.908Z,99613.92
2018-01-01T10:00:59.246Z,99616.67
2018-01-01T10:03:27.553Z,99618.59
2018-01-01T10:05:55.909Z,99619.31
2018-01-01T10:08:24.202Z,99608.40
2018-01-01T10:10:52.534Z,99605.88
2018-01-01T10:13:21.171Z,99594.41
2018-01-01T10:15:49.553Z,99595.45
2018-01-01T10:18:17.811Z,99586.47
2018-01-01T10:20:46.149Z,99589.14
2018-01-01T10:23:14.468Z,99594.21
2018-01-01T10:25:42.802Z,99589.98
2018-01-01T10:28:11.121Z,99582.05
2018-01-01T10:30:39.457Z,99574.17
2018-01-01T10:33:07.780Z,99564.52
2018-01-01T10:35:36.111Z,99565.66
2018-01-01T10:38:04.418Z,99552.33
2018-01-01T10:40:32.766Z,99552.52
2018-01-01T10:43:01.083Z,99557.50
2018-01-01T10:45:30.406Z,99557.23
2018-01-01T10:47:58.720Z,99556.47
2018-01-01T10:50:27.278Z,99554.16
2018-01-01T10:52:56.609Z,99544.56
2018-01-01T10:55:24.950Z,99548.09
2018-01-01T10:57:54.106Z,99545.73
2018-01-01T11:00:22.441Z,99541.38
2018-01-01T11:02:50.866Z,99540.12
2018-01-01T11:05:19.195Z,99536.32
2018-01-01T11:07:47.511Z,99537.20
2018-01-01T11:10:15.887Z,99539.39
2018-01-01T11:12:44.202Z,99531.48
2018-01-01T11:15:12.542Z,99522.94
2018-01-01T11:17:41.007Z,99515.13
2018-01-01T11:20:09.362Z,99521.08
2018-01-01T11:22:37.674Z,99514.81
2018-01-01T11:25:06.003Z,99519.45
2018-01-01T11:27:34.378Z,99507.52
2018-01-01T11:30:02.659Z,99498.41
2018-01-01T11:32:31.018Z,99489.43
2018-01-01T11:34:59.301Z,99496.77
2018-01-01T11:37:27.635Z,99499.80
2018-01-01T11:39:55.962Z,99503.23
2018-01-01T11:42:24.283Z,99494.61
2018-01-01T11:44:52.768Z,99495.53
2018-01-01T11:47:21.086Z,99496.89
2018-01-01T11:49:49.418Z,99494.31
2018-01-01T11:52:17.734Z,99492.20
2018-01-01T11:54:46.067Z,99496.56
2018-01-01T11:57:14.378Z,99492.50
2018-01-01T11:59:42.722Z,99487.59
2018-01-01T12:02:11.066Z,99485.84
2018-01-01T12:04:40.509Z,99489.30
2018-01-01T12:07:08.863Z,99492.05
2018-01-01T12:09:37.174Z,99484.84
2018-01-01T12:12:05.519Z,99487.59
2018-01-01T12:14:33.829Z,99477.84
2018-01-01T12:17:02.158Z,99474.91
2018-01-01T12:19:30.894Z,99471.77
2018-01-01T12:21:59.225Z,99472.42
2018-01-01T12:24:27.551Z,99481.67
2018-01-01T12:26:55.894Z,99478.03
2018-01-01T12:29:24.205Z,99480.41
2018-01-01T12:31:52.549Z,99477.23
2018-01-01T12:34:20.876Z,99475.91
2018-01-01T12:36:49.818Z,99465.95
2018-01-01T12:39:18.130Z,99478.50
2018-01-01T12:41:46.474Z,99471.11
2018-01-01T12:44:14.794Z,99469.95
2018-01-01T12:46:43.133Z,99461.86
2018-01-01T12:49:11.453Z,99468.45
2018-01-01T12:51:39.790Z,99468.32
2018-01-01T12:54:08.101Z,99473.86
2018-01-01T12:56:36.690Z,99471.73
2018-01-01T12:59:05.238Z,99468.05
2018-01-01T13:01:38.593Z,99463.24
2018-01-01T13:04:08.143Z,99464.66
2018-01-01T13:06:37.580Z,99455.32
2018-01-01T13:09:05.987Z,99453.33
2018-01-01T13:11:34.348Z,99446.60
2018-01-01T13:14:02.665Z,99451.09
2018-01-01T13:16:31.019Z,99443.86
2018-01-01T13:18:59.341Z,99441.75
2018-01-01T13:21:27.702Z,99434.98
2018-01-01T13:23:56.209Z,99432.01
2018-01-01T13:26:24.630Z,99430.85
2018-01-01T13:28:53.056Z,99427.35
2018-01-01T13:31:21.401Z,99425.94
2018-01-01T13:33:49.720Z,99424.25
2018-01-01T13:36:18.639Z,99429.47
2018-01-01T13:38:46.966Z,99418.47
2018-01-01T13:41:15.294Z,99410.64
2018-01-01T13:43:43.609Z,99409.55
2018-01-01T13:46:11.959Z,99403.20
2018-01-01T13:48:46.760Z,99405.75
2018-01-01T13:51:16.754Z,99403.21
2018-01-01T13:53:45.063Z,99403.87
2018-01-01T13:56:13.401Z,99401.07
2018-01-01T13:58:41.726Z,99401.47
2018-01-01T14:01:10.067Z,99402.36
2018-01-01T14:03:38.478Z,99407.20
2018-01-01T14:06:06.801Z,99403.22
2018-01-01T14:08:35.114Z,99404.00
2018-01-01T14:11:03.481Z,99397.67
2018-01-01T14:13:31.798Z,99395.95
2018-01-01T14:16:00.130Z,99403.74
2018-01-01T14:18:28.515Z,99407.67
2018-01-01T14:20:56.842Z,99401.56
2018-01-01T14:23:25.182Z,99398.00
2018-01-01T14:25:54.394Z,99409.39
2018-01-01T14:28:23.558Z,99403.12
2018-01-01T14:30:51.862Z,99408.00
2018-01-01T14:33:20.202Z,99405.39
2018-01-01T14:35:49.437Z,99410.41
2018-01-01T14:38:17.765Z,99400.91
2018-01-01T14:40:46.086Z,99409.75
2018-01-01T14:43:14.419Z,99409.52
2018-01-01T14:45:42.747Z,99404.17
2018-01-01T14:48:11.234Z,99412.99
2018-01-01T14:50:39.535Z,99400.67
2018-01-01T14:53:07.913Z,99403.88
2018-01-01T14:55:36.281Z,99397.57
2018-01-01T14:58:04.601Z,99395.06
2018-01-01T15:00:33.750Z,99387.80
2018-01-01T15:03:08.002Z,99381.17
2018-01-01T15:05:36.457Z,99377.73
2018-01-01T15:08:05.082Z,99375.82
2018-01-01T15:10:33.430Z,99368.06
2018-01-01T15:13:02.699Z,99371.53
2018-01-01T15:15:31.025Z,99356.91
2018-01-01T15:17:59.372Z,99356.02
2018-01-01T15:20:28.267Z,99359.58
2018-01-01T15:22:57.503Z,99353.22
2018-01-01T15:25:26.818Z,99350.31
2018-01-01T15:27:55.209Z,99351.14
2018-01-01T15:30:23.534Z,99351.83
2018-01-01T15:32:51.882Z,99353.87
2018-01-01T15:35:20.206Z,99346.22
2018-01-01T15:37:48.742Z,99346.92
2018-01-01T15:40:17.145Z,99336.18
2018-01-01T15:42:45.614Z,99338.10
2018-01-01T15:45:15.410Z,99339.82
2018-01-01T15:47:44.488Z,99341.55
2018-01-01T15:50:14.176Z,99345.22
2018-01-01T15:52:43.555Z,99348.88
2018-01-01T15:55:12.473Z,99338.27
2018-01-01T15:57:40.970Z,99348.03
2018-01-01T16:00:09.707Z,99344.97
2018-01-01T16:02:38.598Z,99341.62
2018-01-01T16:05:08.048Z,99339.82
2018-01-01T16:07:38.813Z,99343.48
2018-01-01T16:10:10.122Z,99340.14
2018-01-01T16:12:38.649Z,99339.00
2018-01-01T16:15:08.270Z,99338.42
2018-01-01T16:17:36.904Z,99335.05
2018-01-01T16:20:05.525Z,99324.14
2018-01-01T16:22:33.993Z,99328.59
2018-01-01T16:25:02.568Z,99322.58
2018-01-01T16:27:31.132Z,99316.18
2018-01-01T16:30:00.117Z,99313.39
2018-01-01T16:32:28.665Z,99317.03
2018-01-01T16:34:57.532Z,99314.17
2018-01-01T16:37:26.242Z,99308.59
2018-01-01T16:39:55.488Z,99299.02
2018-01-01T16:42:23.940Z,99294.02
2018-01-01T16:44:52.463Z,99304.91
2018-01-01T16:47:21.493Z,99306.63
2018-01-01T16:49:50.636Z,99306.44
2018-01-01T16:52:19.162Z,99309.69
2018-01-01T16:54:48.035Z,99313.55
2018-01-01T16:57:16.829Z,99321.21
2018-01-01T16:59:45.309Z,99314.86
2018-01-01T17:02:14.016Z,99309.77
2018-01-01T17:04:42.685Z,99307.89
2018-01-01T17:07:11.137Z,99309.25
2018-01-01T17:09:39.660Z,99304.39
2018-01-01T17:12:08.043Z,99301.69
2018-01-01T17:14:36.472Z,99293.86
2018-01-01T17:17:04.946Z,99290.66
2018-01-01T17:19:33.507Z,99289.11
2018-01-01T17:22:01.934Z,99280.20
2018-01-01T17:24:30.353Z,99280.11
2018-01-01T17:26:59.937Z,99281.81
2018-01-01T17:29:28.569Z,99277.02
2018-01-01T17:31:57.024Z,99281.80
2018-01-01T17:34:25.563Z,99277.66
2018-01-01T17:36:53.964Z,99273.20
2018-01-01T17:39:22.639Z,99273.35
2018-01-01T17:41:51.929Z,99268.86
2018-01-01T17:44:20.519Z,99264.13
2018-01-01T17:46:48.945Z,99265.47
2018-01-01T17:49:17.353Z,99263.13
2018-01-01T17:51:45.831Z,99270.88
2018-01-01T17:54:14.395Z,99269.05
2018-01-01T17:56:42.924Z,99269.45
2018-01-01T17:59:11.578Z,99262.97
2018-01-01T18:01:40.234Z,99257.16
2018-01-01T18:04:08.664Z,99255.05
2018-01-01T18:06:37.077Z,99260.46
2018-01-01T18:09:05.504Z,99256.56
2018-01-01T18:11:33.809Z,99257.72
2018-01-01T18:14:02.159Z,99247.92
2018-01-01T18:16:30.493Z,99259.26
2018-01-01T18:18:58.842Z,99253.04
2018-01-01T18:21:27.174Z,99248.68
2018-01-01T18:23:55.840Z,99252.72
2018-01-01T18:26:25.881Z,99248.56
2018-01-01T18:28:55.137Z,99241.77
2018-01-01T18:31:24.018Z,99242.79
2018-01-01T18:33:52.450Z,99237.78
2018-01-01T18:36:20.762Z,99231.66
2018-01-01T18:38:49.105Z,99236.23
2018-01-01T18:41:17.413Z,99231.52
2018-01-01T18:43:45.746Z,99230.92
2018-01-01T18:46:14.065Z,99228.18
2018-01-01T18:48:42.409Z,99226.27
2018-01-01T18:51:10.732Z,99220.99
2018-01-01T18:53:39.082Z,99223.77
2018-01-01T18:56:08.354Z,99216.61
2018-01-01T18:58:36.684Z,99222.16
2018-01-01T19:01:05.015Z,99207.48
2018-01-01T19:03:33.363Z,99214.05
2018-01-01T19:06:01.683Z,99214.97
2018-01-01T19:08:30.007Z,99223.60
2018-01-01T19:10:58.346Z,99218.92
2018-01-01T19:13:26.668Z,99223.14
2018-01-01T19:15:55.003Z,99216.37
2018-01-01T19:18:23.323Z,99222.16
2018-01-01T19:20:51.663Z,99221.89
2018-01-01T19:23:20.005Z,99220.17
2018-01-01T19:25:49.310Z,99218.30
2018-01-01T19:28:17.626Z,99220.20
2018-01-01T19:30:45.979Z,99218.89
2018-01-01T19:33:14.283Z,99217.44
2018-01-01T19:35:43.518Z,99217.84
2018-01-01T19:38:11.833Z,99216.11
2018-01-01T19:40:40.181Z,99213.11
2018-01-01T19:43:08.493Z,99217.16
2018-01-01T19:45:36.834Z,99219.67
2018-01-01T19:48:05.149Z,99224.55
2018-01-01T19:50:33.498Z,99221.51
2018-01-01T19:53:01.818Z,99224.55
2018-01-01T19:55:30.156Z,99220.66
2018-01-01T19:57:58.470Z,99223.42
2018-01-01T20:00:27.387Z,99222.13
2018-01-01T20:02:55.705Z,99226.56
2018-01-01T20:05:24.970Z,99233.14
2018-01-01T20:07:53.270Z,99228.88
2018-01-01T20:10:21.606Z,99224.63
2018-01-01T20:12:49.927Z,99221.81
2018-01-01T20:15:18.274Z,99220.95
2018-01-01T20:17:46.591Z,99226.55
2018-01-01T20:20:14.946Z,99225.50
2018-01-01T20:22:43.266Z,99226.50
2018-01-01T20:25:11.602Z,99230.48
2018-01-01T20:27:39.926Z,99234.11
2018-01-01T20:30:08.262Z,99230.82
2018-01-01T20:32:36.598Z,99232.73
2018-01-01T20:35:04.946Z,99236.41
2018-01-01T20:37:33.259Z,99230.61
2018-01-01T20:40:01.726Z,99231.30
2018-01-01T20:42:30.053Z,99228.67
2018-01-01T20:44:58.402Z,99226.77
2018-01-01T20:47:26.717Z,99226.34
2018-01-01T20:49:55.065Z,99224.78
2018-01-01T20:52:23.382Z,99228.72
2018-01-01T20:54:51.723Z,99231.33
2018-01-01T20:57:20.075Z,99232.89
2018-01-01T20:59:48.546Z,99232.03
2018-01-01T21:02:16.893Z,99231.05
2018-01-01T21:04:45.245Z,99235.59
2018-01-01T21:07:13.577Z,99232.96
2018-01-01T21:09:41.902Z,99229.70
2018-01-01T21:12:10.251Z,99223.97
2018-01-01T21:14:38.584Z,99227.86
2018-01-01T21:17:06.919Z,99230.59
2018-01-01T21:19:35.983Z,99234.19
2018-01-01T21:22:04.318Z,99235.67
2018-01-01T21:24:32.693Z,99238.58
2018-01-01T21:27:01.036Z,99236.00
2018-01-01T21:29:29.363Z,99237.41
2018-01-01T21:31:57.719Z,99238.11
2018-01-01T21:34:26.140Z,99244.38
2018-01-01T21:36:54.466Z,99240.66
2018-01-01T21:39:22.838Z,99246.09
2018-01-01T21:41:51.176Z,99247.22
2018-01-01T21:44:19.485Z,99246.00
2018-01-01T21:46:47.833Z,99252.00
2018-01-01T21:49:16.151Z,99256.16
2018-01-01T21:51:44.519Z,99261.95
2018-01-01T21:54:12.853Z,99263.60
2018-01-01T21:56:41.190Z,99265.61
2018-01-01T21:59:10.329Z,99272.79
2018-01-01T22:01:38.687Z,99276.81
2018-01-01T22:04:07.071Z,99274.73
2018-01-01T22:06:35.405Z,99278.98
2018-01-01T22:09:03.727Z,99281.27
2018-01-01T22:11:32.079Z,99278.27
2018-01-01T22:14:00.398Z,99289.77
2018-01-01T22:16:28.774Z,99287.95
2018-01-01T22:18:57.098Z,99286.70
2018-01-01T22:21:25.433Z,99288.04
2018-01-01T22:23:53.760Z,99287.31
2018-01-01T22:26:22.102Z,99293.00
2018-01-01T22:28:50.427Z,99297.28
2018-01-01T22:31:18.763Z,99297.13
2018-01-01T22:33:47.077Z,99301.94
2018-01-01T22:36:15.458Z,99301.84
2018-01-01T22:38:44.717Z,99301.57
2018-01-01T22:41:13.102Z,99301.36
2018-01-01T22:43:41.674Z,99306.41
2018-01-01T22:46:10.111Z,99307.98
2018-01-01T22:48:38.557Z,99313.98
2018-01-01T22:51:06.883Z,99313.56
2018-01-01T22:53:35.201Z,99318.55
2018-01-01T22:56:03.547Z,99322.56
2018-01-01T22:58:31.859Z,99323.84
2018-01-01T23:01:00.218Z,99321.77
2018-01-01T23:03:28.538Z,99336.84
2018-01-01T23:05:56.845Z,99333.59
2018-01-01T23:08:25.217Z,99330.31
2018-01-01T23:10:53.606Z,99336.00
2018-01-01T23:13:21.949Z,99335.41
2018-01-01T23:15:50.506Z,99339.98
2018-01-01T23:18:19.098Z,99343.49
2018-01-01T23:20:47.403Z,99345.88
2018-01-01T23:23:15.760Z,99346.38
2018-01-01T23:25:44.055Z,99345.37
2018-01-01T23:28:12.389Z,99352.84
2018-01-01T23:30:40.702Z,99358.60
2018-01-01T23:33:09.050Z,99359.14
2018-01-01T23:35:38.241Z,99362.58
2018-01-01T23:38:06.701Z,99365.72
2018-01-01T23:40:35.018Z,99374.11
2018-01-01T23:43:03.369Z,99383.13
2018-01-01T23:45:31.673Z,99381.50
2018-01-01T23:48:00.014Z,99382.72
2018-01-01T23:50:28.325Z,99399.67
2018-01-01T23:52:56.658Z,99392.63
2018-01-01T23:55:24.985Z,99401.53
2018-01-01T23:57:53.316Z,99403.31
